West Candor, New York
Current Conditions -  °F | °C
As of 3:53 PM on Friday 24 Oct 2014 (Local Time) from KBGM Reporting Station
Clear Clear  
Wind Chill: 58°   Ceiling: Unl
Heat Index: 58°   Visibility: 10mi
Dew Point: 40°   Wind: 12mph
Humidity: 51%   Direction: 330°NNW
Pressure: 29.87"   Gusts: 24mph
Location:  42.2148°N, 76.3401°W
Report Text: KBGM 241953Z 33010G21KT 10SM CLR 14/04 A2987 RMK AO2 SLP117 T01440044
Loading
Personal Weather Stations






























Interactive Weather Map
Tropical Storm Tracking
New forecast layout! Learn more

10-Day Weather Forecast

Advertisements
Track Severe Weather on mobile